Time;durP1;ratioP1;P1;durP2;ratioP2;P2;SDS_P1;SDS_P2;PMS_P1;PMS_P2;Temp;Humidity;BMP_temperature;BMP_pressure;BME280_temperature;BME280_humidity;BME280_pressure;Samples;Min_cycle;Max_cycle;Signal;HPM_P1;HPM_P2
2022/10/02 00:02:41;;;;;;;4.28;1.35;;;19.90;67.10;;;;;;5010661;28;20092;-74
2022/10/02 00:05:26;;;;;;;6.38;2.08;;;19.90;67.00;;;;;;4993391;28;20046;-74
2022/10/02 00:08:14;;;;;;;4.15;1.27;;;19.90;67.00;;;;;;4994580;28;20049;-74
2022/10/02 00:10:58;;;;;;;3.07;1.33;;;19.90;67.00;;;;;;4994004;28;20121;-74
2022/10/02 00:13:33;;;;;;;4.40;1.75;;;19.90;67.00;;;;;;4994266;28;20344;-75
2022/10/02 00:16:00;;;;;;;4.05;1.40;;;19.90;67.00;;;;;;5015394;28;20392;-74
2022/10/02 00:18:28;;;;;;;4.15;1.38;;;19.90;67.00;;;;;;5013230;28;20449;-74
2022/10/02 00:20:59;;;;;;;5.35;1.50;;;19.90;67.00;;;;;;4997733;28;20545;-74
2022/10/02 00:23:32;;;;;;;4.40;1.52;;;19.80;66.90;;;;;;5015508;28;20090;-74
2022/10/02 00:26:04;;;;;;;3.60;1.20;;;19.80;66.90;;;;;;5013437;28;20049;-74
2022/10/02 00:28:45;;;;;;;3.88;1.30;;;19.90;67.00;;;;;;4997406;28;20393;-74
2022/10/02 00:31:27;;;;;;;6.30;1.35;;;19.80;66.90;;;;;;4997310;28;20120;-74
2022/10/02 00:34:05;;;;;;;3.63;1.20;;;19.80;66.90;;;;;;4997909;28;20045;-74
2022/10/02 00:36:43;;;;;;;5.05;1.20;;;19.80;66.90;;;;;;5014069;28;20046;-74
2022/10/02 00:39:30;;;;;;;4.38;1.33;;;19.80;66.90;;;;;;5012824;28;20046;-74
2022/10/02 00:42:08;;;;;;;4.78;1.45;;;19.80;66.80;;;;;;5013817;28;20503;-74
2022/10/02 00:44:54;;;;;;;;;;;19.80;66.90;;;;;;5014488;28;20045;-76
2022/10/02 00:47:42;;;;;;;2.90;0.90;;;19.80;66.80;;;;;;5013376;28;20373;-74
2022/10/02 00:50:14;;;;;;;4.47;1.27;;;19.80;66.90;;;;;;5014382;28;20061;-74
2022/10/02 00:52:43;;;;;;;5.40;1.70;;;19.80;66.90;;;;;;5014316;28;20429;-74
2022/10/02 00:55:27;;;;;;;3.67;1.08;;;19.80;66.90;;;;;;5014290;28;20096;-74
2022/10/02 00:58:21;;;;;;;5.03;1.30;;;19.80;66.90;;;;;;5014596;28;20050;-75
2022/10/02 01:01:07;;;;;;;3.00;1.10;;;19.80;66.90;;;;;;5013245;28;20049;-74
2022/10/02 01:03:39;;;;;;;4.00;1.17;;;19.80;66.90;;;;;;5010906;28;20074;-74
2022/10/02 01:06:08;;;;;;;4.97;1.50;;;19.70;66.80;;;;;;5014728;28;20523;-74
2022/10/02 01:08:34;;;;;;;4.43;1.17;;;19.70;66.80;;;;;;4996026;28;20452;-74
2022/10/02 01:11:01;;;;;;;4.97;1.42;;;19.70;66.80;;;;;;4996700;28;20508;-74
2022/10/02 01:13:26;;;;;;;5.00;1.30;;;19.70;66.80;;;;;;5014335;28;20123;-74
2022/10/02 01:15:55;;;;;;;3.75;1.20;;;19.70;66.80;;;;;;5013093;28;20069;-74
2022/10/02 01:18:20;;;;;;;4.45;0.95;;;19.70;66.80;;;;;;4996671;28;20077;-74
2022/10/02 01:20:47;;;;;;;4.15;1.30;;;19.70;66.70;;;;;;5012184;28;20401;-74
2022/10/02 01:23:44;;;;;;;5.22;1.52;;;19.70;66.70;;;;;;4995411;28;20141;-74
2022/10/02 01:26:10;;;;;;;2.92;1.25;;;19.70;66.70;;;;;;4968493;28;20143;-74
2022/10/02 01:28:36;;;;;;;4.32;1.38;;;19.70;66.80;;;;;;5013679;28;20073;-74
2022/10/02 01:31:09;;;;;;;2.72;1.20;;;19.70;66.70;;;;;;5013952;28;20096;-74
2022/10/02 01:33:35;;;;;;;5.53;1.40;;;19.70;67.30;;;;;;5013010;28;20034;-74
2022/10/02 01:36:01;;;;;;;5.57;1.40;;;19.70;66.70;;;;;;4995887;28;20489;-74
2022/10/02 01:38:26;;;;;;;3.55;1.20;;;19.70;66.70;;;;;;5012565;28;20053;-75
2022/10/02 01:40:52;;;;;;;3.25;1.02;;;19.70;66.70;;;;;;5013115;28;20034;-74
2022/10/02 01:43:20;;;;;;;3.75;1.00;;;19.70;66.70;;;;;;4995307;28;20455;-74
2022/10/02 01:46:00;;;;;;;4.15;1.20;;;19.70;66.70;;;;;;5012466;28;20100;-74
2022/10/02 01:48:31;;;;;;;4.05;1.67;;;19.70;66.70;;;;;;5012490;28;20046;-74
2022/10/02 01:51:16;;;;;;;4.57;1.10;;;19.70;66.70;;;;;;5011595;28;20485;-74
2022/10/02 01:53:50;;;;;;;3.55;1.10;;;19.70;66.70;;;;;;5012646;28;20046;-73
2022/10/02 01:56:22;;;;;;;4.50;1.45;;;19.70;66.70;;;;;;4994311;28;20136;-74
2022/10/02 01:59:15;;;;;;;4.85;1.33;;;19.60;66.60;;;;;;5012388;28;20172;-74
2022/10/02 02:01:59;;;;;;;4.80;1.10;;;19.60;66.60;;;;;;4995623;28;20495;-74
2022/10/02 02:04:28;;;;;;;2.67;0.90;;;19.60;66.60;;;;;;4963079;28;20053;-74
2022/10/02 02:07:11;;;;;;;3.92;0.98;;;19.60;66.60;;;;;;4979020;28;20173;-74
2022/10/02 02:09:42;;;;;;;3.15;1.00;;;19.60;66.60;;;;;;4995250;28;20505;-74
2022/10/02 02:12:17;;;;;;;3.60;0.93;;;19.60;66.70;;;;;;4994708;28;20450;-74
2022/10/02 02:14:47;;;;;;;3.63;1.30;;;19.60;66.60;;;;;;5012102;28;20046;-74
2022/10/02 02:17:30;;;;;;;3.05;1.05;;;19.60;66.60;;;;;;5011219;28;20052;-74
2022/10/02 02:20:04;;;;;;;3.92;1.00;;;19.60;66.70;;;;;;5012434;28;20054;-74
2022/10/02 02:22:32;;;;;;;3.58;1.00;;;19.60;66.60;;;;;;5012057;28;20041;-74
2022/10/02 02:25:01;;;;;;;4.05;1.02;;;19.60;66.70;;;;;;5011494;28;20107;-74
2022/10/02 02:27:29;;;;;;;3.97;0.90;;;19.60;66.70;;;;;;4995527;28;20104;-73
2022/10/02 02:29:59;;;;;;;3.72;0.95;;;19.60;66.70;;;;;;5012029;28;20053;-74
2022/10/02 02:32:26;;;;;;;3.20;1.00;;;19.60;66.70;;;;;;4994458;28;20088;-74
2022/10/02 02:34:56;;;;;;;4.20;1.07;;;19.60;66.70;;;;;;4995719;28;20521;-74
2022/10/02 02:37:22;;;;;;;3.20;1.02;;;19.60;66.70;;;;;;5011289;28;20512;-74
2022/10/02 02:39:52;;;;;;;5.57;1.13;;;19.60;66.70;;;;;;4994908;28;20042;-74
2022/10/02 02:42:18;;;;;;;4.03;1.23;;;19.60;66.70;;;;;;4994715;28;20081;-74
2022/10/02 02:44:56;;;;;;;3.38;1.30;;;19.60;66.70;;;;;;4978993;28;20478;-74
2022/10/02 02:47:25;;;;;;;3.60;1.07;;;19.60;66.70;;;;;;5011648;28;20497;-74
2022/10/02 02:49:55;;;;;;;3.20;0.98;;;19.50;66.60;;;;;;4995110;28;20053;-74
2022/10/02 02:52:44;;;;;;;4.05;1.00;;;19.60;66.70;;;;;;5010778;28;20053;-74
2022/10/02 02:55:21;;;;;;;4.13;1.33;;;19.50;66.60;;;;;;5012284;28;20050;-74
2022/10/02 02:57:57;;;;;;;3.83;1.10;;;19.60;66.70;;;;;;5011635;28;20500;-74
2022/10/02 03:00:23;;;;;;;5.10;1.10;;;19.60;66.70;;;;;;4994651;28;20049;-74
2022/10/02 03:02:49;;;;;;;2.58;0.93;;;19.60;66.70;;;;;;4995426;28;20038;-74
2022/10/02 03:05:16;;;;;;;4.78;1.00;;;19.60;66.70;;;;;;4994943;28;20050;-74
2022/10/02 03:07:48;;;;;;;3.80;1.13;;;19.60;66.70;;;;;;5010790;28;20049;-74
2022/10/02 03:10:15;;;;;;;3.63;1.10;;;19.60;66.70;;;;;;5011252;28;20088;-74
2022/10/02 03:13:03;;;;;;;4.15;1.38;;;19.60;66.80;;;;;;4995210;28;20120;-74
2022/10/02 03:15:47;;;;;;;3.45;1.10;;;19.60;66.70;;;;;;5011552;28;20050;-73
2022/10/02 03:18:23;;;;;;;2.83;0.90;;;19.60;66.80;;;;;;5012952;28;20046;-73
2022/10/02 03:20:54;;;;;;;3.90;1.00;;;19.60;66.80;;;;;;5012271;28;20199;-73
2022/10/02 03:23:29;;;;;;;4.25;0.98;;;19.60;66.80;;;;;;5012123;28;20046;-73
2022/10/02 03:26:01;;;;;;;4.40;0.98;;;19.60;66.70;;;;;;5014401;28;20041;-74
2022/10/02 03:28:41;;;;;;;2.92;0.68;;;19.60;66.70;;;;;;5012830;28;20069;-74
2022/10/02 03:31:06;;;;;;;5.20;1.20;;;19.60;66.70;;;;;;5011227;28;20628;-73
2022/10/02 03:33:32;;;;;;;2.40;0.80;;;19.60;66.70;;;;;;4994893;28;20073;-73
2022/10/02 03:35:57;;;;;;;2.80;0.90;;;19.70;67.30;;;;;;4993965;28;20093;-74
2022/10/02 03:38:23;;;;;;;3.85;0.98;;;19.70;66.70;;;;;;4978085;28;20048;-74
2022/10/02 03:40:51;;;;;;;3.35;0.93;;;19.70;66.70;;;;;;5011248;28;20124;-74
2022/10/02 03:43:21;;;;;;;2.70;0.90;;;19.70;66.70;;;;;;4993659;28;20056;-74
2022/10/02 03:45:48;;;;;;;2.35;0.80;;;19.70;66.70;;;;;;5011187;28;20410;-73
2022/10/02 03:48:13;;;;;;;3.30;0.93;;;19.70;66.70;;;;;;5011667;28;20141;-74
2022/10/02 03:50:39;;;;;;;2.67;0.90;;;19.70;66.70;;;;;;5015066;28;20049;-73
2022/10/02 03:53:21;;;;;;;2.80;1.10;;;19.70;66.70;;;;;;5015768;28;20052;-73
2022/10/02 03:55:54;;;;;;;2.75;1.23;;;19.70;66.70;;;;;;5015507;28;20049;-73
2022/10/02 03:58:20;;;;;;;2.85;0.82;;;19.80;66.70;;;;;;5014113;28;20417;-74
2022/10/02 04:00:51;;;;;;;3.15;1.10;;;19.80;66.70;;;;;;4995513;28;20129;-74
2022/10/02 04:03:21;;;;;;;2.85;0.70;;;19.80;66.70;;;;;;5006986;28;20050;-73
2022/10/02 04:05:57;;;;;;;2.22;0.80;;;19.80;67.30;;;;;;4981857;28;20485;-73
2022/10/02 04:08:27;;;;;;;2.88;0.80;;;19.80;66.60;;;;;;4982028;28;20413;-74
2022/10/02 04:11:04;;;;;;;3.83;0.82;;;19.80;66.60;;;;;;4965474;28;20065;-73
2022/10/02 04:13:40;;;;;;;3.67;0.93;;;19.80;66.60;;;;;;4999387;28;20053;-73
2022/10/02 04:16:23;;;;;;;2.55;0.70;;;19.90;66.70;;;;;;4997548;28;20048;-73
2022/10/02 04:19:02;;;;;;;3.90;0.98;;;19.90;66.70;;;;;;5013703;28;20042;-73
2022/10/02 04:21:36;;;;;;;4.15;1.10;;;19.90;66.70;;;;;;5015242;28;20073;-73
2022/10/02 04:24:10;;;;;;;3.28;0.70;;;19.90;66.70;;;;;;5014651;28;20053;-73
2022/10/02 04:26:38;;;;;;;2.75;0.63;;;19.90;66.60;;;;;;4997704;28;20120;-73
2022/10/02 04:29:19;;;;;;;2.40;0.70;;;19.90;66.60;;;;;;5015425;28;20053;-73
2022/10/02 04:31:48;;;;;;;1.55;0.60;;;19.90;66.60;;;;;;5013570;28;20050;-73
2022/10/02 04:34:13;;;;;;;2.35;0.73;;;19.90;66.60;;;;;;5014263;28;20065;-74
2022/10/02 04:37:08;;;;;;;1.85;0.80;;;19.90;66.60;;;;;;5015774;28;20085;-73
2022/10/02 04:39:40;;;;;;;3.88;0.90;;;19.90;66.60;;;;;;5011183;28;20505;-73
2022/10/02 04:42:22;;;;;;;2.67;0.90;;;20.00;66.70;;;;;;5015113;28;20049;-73
2022/10/02 04:44:50;;;;;;;4.55;0.80;;;20.00;66.60;;;;;;5013381;28;20046;-74
2022/10/02 04:47:48;;;;;;;2.40;0.70;;;20.00;67.30;;;;;;5014438;28;20061;-73
2022/10/02 04:50:35;;;;;;;1.67;0.50;;;20.00;66.60;;;;;;5013460;28;20478;-73
2022/10/02 04:53:11;;;;;;;3.42;0.80;;;20.00;66.60;;;;;;5014085;28;20490;-73
2022/10/02 04:56:01;;;;;;;3.05;0.85;;;20.00;66.60;;;;;;5014436;28;20046;-73
2022/10/02 04:58:54;;;;;;;3.03;0.73;;;20.00;66.60;;;;;;5014503;28;20073;-74
2022/10/02 05:02:17;;;;;;;2.85;0.90;;;20.10;66.60;;;;;;4995767;28;20572;-74
2022/10/02 05:05:05;;;;;;;1.63;0.60;;;20.10;66.60;;;;;;4934938;29;20047;-73
2022/10/02 05:07:40;;;;;;;;;;;20.10;66.60;;;;;;4920990;29;20491;-74
2022/10/02 05:10:24;;;;;;;2.28;0.70;;;20.00;66.50;;;;;;4997896;28;19921;-73
2022/10/02 05:13:13;;;;;;;3.55;0.80;;;20.10;66.60;;;;;;4996256;28;20042;-73
2022/10/02 05:15:41;;;;;;;3.47;0.85;;;20.10;66.60;;;;;;5013478;28;20046;-73
2022/10/02 05:18:23;;;;;;;;;;;20.10;66.60;;;;;;4996896;28;20038;-73
2022/10/02 05:21:15;;;;;;;3.33;1.20;;;20.10;66.60;;;;;;5012235;28;20399;-73
2022/10/02 05:23:59;;;;;;;3.25;0.70;;;20.10;66.60;;;;;;5013212;28;20042;-73
2022/10/02 05:27:10;;;;;;;2.60;0.70;;;20.10;66.60;;;;;;5012619;28;20081;-73
2022/10/02 05:30:03;;;;;;;2.90;0.77;;;20.10;66.60;;;;;;5009570;28;20082;-73
2022/10/02 05:32:39;;;;;;;3.30;0.57;;;20.10;66.60;;;;;;5012941;28;20046;-73
2022/10/02 05:35:30;;;;;;;3.75;0.80;;;20.10;66.60;;;;;;5012226;28;20058;-73
2022/10/02 05:38:18;;;;;;;2.40;0.60;;;20.10;66.60;;;;;;5012890;28;20049;-73
2022/10/02 05:40:59;;;;;;;2.95;0.70;;;20.10;66.50;;;;;;5014103;28;20089;-73
2022/10/02 05:43:35;;;;;;;4.47;1.08;;;20.20;66.60;;;;;;5012863;28;20046;-73
2022/10/02 05:46:04;;;;;;;2.40;0.70;;;20.10;66.50;;;;;;5013390;28;20060;-72
2022/10/02 05:48:51;;;;;;;1.85;0.60;;;20.10;66.50;;;;;;4995351;28;20050;-73
2022/10/02 05:51:56;;;;;;;2.33;0.70;;;20.20;66.50;;;;;;5012200;28;20042;-73
2022/10/02 05:54:36;;;;;;;3.63;0.70;;;20.20;66.50;;;;;;4995893;28;20513;-73
2022/10/02 05:57:35;;;;;;;2.92;0.75;;;20.20;66.50;;;;;;5013242;28;20045;-73
2022/10/02 06:00:19;;;;;;;2.35;0.70;;;20.20;66.50;;;;;;4996104;28;20457;-73
2022/10/02 06:02:58;;;;;;;2.90;0.55;;;20.20;66.50;;;;;;5013016;28;20049;-73
2022/10/02 06:05:38;;;;;;;2.17;0.50;;;20.20;66.50;;;;;;5013254;28;20402;-73
2022/10/02 06:08:04;;;;;;;2.25;0.55;;;20.20;66.50;;;;;;5012556;28;20069;-73
2022/10/02 06:10:34;;;;;;;1.80;0.50;;;20.20;67.10;;;;;;5011087;28;20088;-73
2022/10/02 06:13:27;;;;;;;2.95;0.50;;;20.20;66.50;;;;;;5012787;28;20057;-73
2022/10/02 06:16:08;;;;;;;2.65;0.80;;;20.20;66.50;;;;;;5012169;28;20592;-73
2022/10/02 06:18:33;;;;;;;1.67;0.60;;;20.20;66.50;;;;;;5012569;28;20049;-73
2022/10/02 06:21:25;;;;;;;1.73;0.47;;;20.20;66.50;;;;;;4995637;28;20046;-73
2022/10/02 06:23:52;;;;;;;1.77;0.60;;;20.20;66.50;;;;;;5010978;28;20409;-74
2022/10/02 06:26:42;;;;;;;1.53;0.60;;;20.20;66.50;;;;;;5011830;28;20050;-73
2022/10/02 06:29:24;;;;;;;2.95;0.82;;;20.20;66.50;;;;;;4995365;28;20045;-74
2022/10/02 06:32:05;;;;;;;2.90;0.63;;;20.30;66.60;;;;;;4994767;28;20042;-73
2022/10/02 06:34:31;;;;;;;2.40;0.70;;;20.20;66.50;;;;;;4995718;28;20120;-73
2022/10/02 06:36:59;;;;;;;3.63;0.65;;;20.30;66.50;;;;;;5013061;28;20128;-71
2022/10/02 06:40:07;;;;;;;6.75;0.80;;;20.30;66.50;;;;;;5012139;28;20633;-73
2022/10/02 06:42:36;;;;;;;2.30;0.68;;;20.30;66.50;;;;;;4990393;28;20069;-74
2022/10/02 06:45:23;;;;;;;4.50;0.60;;;20.30;66.50;;;;;;5010935;28;20050;-74
2022/10/02 06:48:06;;;;;;;2.15;0.60;;;20.30;66.50;;;;;;5012969;28;20058;-73
2022/10/02 06:51:00;;;;;;;1.85;0.60;;;20.30;66.50;;;;;;5011957;28;20057;-73
2022/10/02 06:53:36;;;;;;;3.20;0.75;;;20.30;66.50;;;;;;5012091;28;20144;-73
2022/10/02 06:56:32;;;;;;;4.85;1.00;;;20.30;66.50;;;;;;5012003;28;20041;-74
2022/10/02 06:59:08;;;;;;;6.60;0.73;;;20.30;66.60;;;;;;4986004;28;20446;-73
2022/10/02 07:02:11;;;;;;;1.35;0.60;;;20.30;66.60;;;;;;4995562;28;20042;-74
2022/10/02 07:04:57;;;;;;;5.07;0.95;;;20.40;66.70;;;;;;5012679;28;20037;-73
2022/10/02 07:07:42;;;;;;;2.70;0.80;;;20.30;66.70;;;;;;5011603;28;20402;-73
2022/10/02 07:10:17;;;;;;;4.65;0.70;;;20.30;66.70;;;;;;4998548;28;20046;-69
2022/10/02 07:13:11;;;;;;;2.50;0.65;;;20.40;66.90;;;;;;4979609;28;20047;-74
2022/10/02 07:16:08;;;;;;;3.80;0.93;;;20.40;67.10;;;;;;5003057;28;20441;-72
2022/10/02 07:18:47;;;;;;;4.50;1.20;;;20.40;67.10;;;;;;4991587;28;20050;-73
2022/10/02 07:21:19;;;;;;;6.55;0.82;;;20.40;67.00;;;;;;4990304;28;20055;-71
2022/10/02 07:24:03;;;;;;;5.65;0.80;;;20.50;67.10;;;;;;4993257;28;20167;-72
2022/10/02 07:26:44;;;;;;;7.07;0.90;;;20.50;67.20;;;;;;4978215;28;20390;-72
2022/10/02 07:29:20;;;;;;;5.63;0.77;;;20.50;67.20;;;;;;4995140;28;20046;-72
2022/10/02 07:31:58;;;;;;;4.10;0.80;;;20.50;67.20;;;;;;4979259;28;20054;-72
2022/10/02 07:34:36;;;;;;;;;;;20.50;67.30;;;;;;4994992;28;20478;-71
2022/10/02 07:37:02;;;;;;;;;;;20.50;67.20;;;;;;4995745;28;20293;-72
2022/10/02 07:39:35;;;;;;;6.47;1.25;;;20.50;67.30;;;;;;4996010;28;20016;-72
2022/10/02 07:42:10;;;;;;;3.90;0.80;;;20.60;67.20;;;;;;4994907;28;20042;-74
2022/10/02 07:44:51;;;;;;;3.63;0.70;;;20.60;67.30;;;;;;4996330;28;20046;-73
2022/10/02 07:47:23;;;;;;;4.72;1.00;;;20.60;67.40;;;;;;4994563;28;20050;-74
2022/10/02 07:49:55;;;;;;;2.28;0.82;;;20.60;67.40;;;;;;4995540;28;20050;-75
2022/10/02 07:52:35;;;;;;;3.28;0.80;;;20.60;67.40;;;;;;4995045;28;20054;-71
2022/10/02 07:55:19;;;;;;;3.40;0.80;;;20.60;67.40;;;;;;5002991;28;20065;-72
2022/10/02 07:58:09;;;;;;;7.03;0.98;;;20.70;67.50;;;;;;4987156;28;20065;-72
2022/10/02 08:00:44;;;;;;;5.57;0.98;;;20.70;67.50;;;;;;4995855;28;20097;-71
2022/10/02 08:03:19;;;;;;;4.75;0.85;;;20.70;67.50;;;;;;4961468;28;20068;-70
2022/10/02 08:05:54;;;;;;;5.00;1.27;;;20.70;67.50;;;;;;4995917;28;20422;-72
2022/10/02 08:08:27;;;;;;;3.40;0.88;;;20.80;67.50;;;;;;4995835;28;20046;-72
2022/10/02 08:10:56;;;;;;;4.72;1.00;;;20.80;67.40;;;;;;4991360;28;20037;-73
2022/10/02 08:13:34;;;;;;;4.30;0.70;;;20.90;67.50;;;;;;5004705;28;20093;-73
2022/10/02 08:15:59;;;;;;;2.92;0.90;;;20.90;68.20;;;;;;4994042;28;20050;-73
2022/10/02 08:18:37;;;;;;;3.33;0.90;;;20.90;67.50;;;;;;4995330;28;20058;-71
2022/10/02 08:21:04;;;;;;;5.60;1.20;;;20.80;67.40;;;;;;4978240;28;20406;-72
2022/10/02 08:23:39;;;;;;;3.63;0.90;;;20.80;67.40;;;;;;4977247;28;20069;-70
2022/10/02 08:26:19;;;;;;;5.80;1.00;;;20.80;67.40;;;;;;4978253;28;20494;-72
2022/10/02 08:29:23;;;;;;;6.57;1.00;;;20.80;67.40;;;;;;4994568;28;20057;-72
2022/10/02 08:31:52;;;;;;;3.55;1.10;;;20.80;67.50;;;;;;4959528;28;20547;-72
2022/10/02 08:34:24;;;;;;;5.28;1.13;;;20.80;67.50;;;;;;4993695;28;20042;-72
2022/10/02 08:37:08;;;;;;;4.38;1.10;;;20.80;67.50;;;;;;4994736;28;20477;-72
2022/10/02 08:39:49;;;;;;;5.22;1.13;;;20.80;67.50;;;;;;4994139;28;20057;-73
2022/10/02 08:42:39;;;;;;;5.57;0.85;;;20.90;67.60;;;;;;4987512;28;20046;-72
2022/10/02 08:45:23;;;;;;;5.53;0.90;;;20.90;67.50;;;;;;5009136;28;20077;-72
2022/10/02 08:48:14;;;;;;;6.00;0.95;;;20.90;67.50;;;;;;5014631;28;20116;-74
2022/10/02 08:51:04;;;;;;;3.35;1.02;;;21.00;67.50;;;;;;5013750;28;20091;-72
2022/10/02 08:53:52;;;;;;;4.18;1.15;;;20.90;67.40;;;;;;4997070;28;20077;-73
2022/10/02 08:56:43;;;;;;;4.78;1.02;;;21.00;67.40;;;;;;5014612;28;20046;-72
2022/10/02 08:59:21;;;;;;;4.03;1.00;;;20.90;67.40;;;;;;5002979;28;20137;-73
2022/10/02 09:02:20;;;;;;;4.63;1.00;;;20.90;67.40;;;;;;4997476;28;20041;-73
2022/10/02 09:05:10;;;;;;;4.22;1.00;;;21.00;67.40;;;;;;5014904;28;20054;-73
2022/10/02 09:08:19;;;;;;;6.10;0.98;;;21.00;67.40;;;;;;5011863;28;20042;-72
2022/10/02 09:11:22;;;;;;;5.47;0.98;;;21.00;67.30;;;;;;5002689;28;20154;-74
2022/10/02 09:14:19;;;;;;;4.78;1.17;;;21.00;67.30;;;;;;4995653;28;20056;-76
2022/10/02 09:17:18;;;;;;;6.05;1.17;;;20.90;67.20;;;;;;5013211;28;20520;-76
2022/10/02 09:19:47;;;;;;;4.63;1.10;;;20.90;67.10;;;;;;5012665;28;20050;-76
2022/10/02 09:22:28;;;;;;;3.63;0.75;;;21.00;67.20;;;;;;5013604;28;20508;-76
2022/10/02 09:25:21;;;;;;;2.95;1.00;;;21.00;67.10;;;;;;5012598;28;20513;-75
2022/10/02 09:27:53;;;;;;;5.50;0.98;;;21.00;67.10;;;;;;5014299;28;20042;-77
2022/10/02 09:30:30;;;;;;;3.33;1.08;;;21.00;67.00;;;;;;5013654;28;20107;-74
2022/10/02 09:33:21;;;;;;;5.50;0.95;;;21.00;67.00;;;;;;4979988;28;20069;-77
2022/10/02 09:36:17;;;;;;;6.10;1.10;;;20.90;66.80;;;;;;4997291;28;20042;-77
2022/10/02 09:39:16;;;;;;;4.85;1.10;;;20.90;66.80;;;;;;4982545;28;20049;-77
2022/10/02 09:42:19;;;;;;;6.15;1.10;;;20.90;66.70;;;;;;4979374;28;20042;-77
2022/10/02 09:45:16;;;;;;;9.55;1.42;;;20.90;66.50;;;;;;4996144;28;20062;-77
2022/10/02 09:48:09;;;;;;;6.90;1.20;;;20.90;66.40;;;;;;5011007;28;20107;-77
2022/10/02 09:51:00;;;;;;;6.63;1.20;;;20.90;66.30;;;;;;5012653;28;20116;-72
2022/10/02 09:53:59;;;;;;;7.82;1.30;;;20.80;66.10;;;;;;5004424;28;20266;-72
2022/10/02 09:56:44;;;;;;;4.45;1.40;;;20.90;66.20;;;;;;5007152;28;20042;-71
2022/10/02 09:59:31;;;;;;;3.60;1.00;;;20.90;66.20;;;;;;5010831;28;20045;-73
2022/10/02 10:02:09;;;;;;;5.30;1.00;;;20.90;66.30;;;;;;5010067;28;20070;-72
2022/10/02 10:04:47;;;;;;;5.57;1.00;;;20.90;66.30;;;;;;5011282;28;20457;-70
2022/10/02 10:07:59;;;;;;;6.93;1.20;;;20.90;66.30;;;;;;4992349;28;20478;-71
2022/10/02 10:10:36;;;;;;;4.60;1.00;;;20.90;66.30;;;;;;4916855;29;20047;-71
2022/10/02 10:13:35;;;;;;;5.43;1.13;;;21.00;66.60;;;;;;4945032;29;20047;-71
2022/10/02 10:16:37;;;;;;;6.40;1.30;;;21.00;66.80;;;;;;4994011;28;20478;-70
2022/10/02 10:19:14;;;;;;;5.03;1.15;;;21.00;66.90;;;;;;4998756;28;20074;-74
2022/10/02 10:22:02;;;;;;;5.10;1.10;;;21.00;66.90;;;;;;5010412;28;20042;-73
2022/10/02 10:24:49;;;;;;;6.88;1.17;;;21.00;67.00;;;;;;5008987;28;20088;-76
2022/10/02 10:27:38;;;;;;;5.57;1.63;;;21.00;67.10;;;;;;5010079;28;20139;-75
2022/10/02 10:30:23;;;;;;;4.88;1.05;;;21.00;67.10;;;;;;4993202;28;20049;-74
2022/10/02 10:33:20;;;;;;;4.10;0.90;;;21.00;67.10;;;;;;4992227;28;20060;-75
2022/10/02 10:35:52;;;;;;;5.35;1.33;;;21.00;67.20;;;;;;4965648;28;20115;-75
2022/10/02 10:38:44;;;;;;;5.03;1.25;;;21.00;67.30;;;;;;5009596;28;20129;-72
2022/10/02 10:41:15;;;;;;;6.50;1.52;;;21.00;67.30;;;;;;4963769;28;20061;-75
2022/10/02 10:43:51;;;;;;;6.93;1.00;;;21.00;67.30;;;;;;4975561;28;20050;-74
2022/10/02 10:46:34;;;;;;;6.00;1.05;;;21.00;67.30;;;;;;4984436;28;20046;-73
2022/10/02 10:49:12;;;;;;;4.57;0.90;;;21.00;67.40;;;;;;4984724;28;20145;-73
2022/10/02 10:51:41;;;;;;;4.43;1.20;;;21.00;67.40;;;;;;5007715;28;20493;-73
2022/10/02 10:54:21;;;;;;;4.68;1.10;;;20.90;67.40;;;;;;4984583;28;20493;-73
2022/10/02 10:57:14;;;;;;;6.07;1.13;;;21.00;67.50;;;;;;5008781;28;20077;-72
2022/10/02 10:59:54;;;;;;;5.63;0.90;;;21.00;67.50;;;;;;5006299;28;20050;-73
2022/10/02 11:02:34;;;;;;;7.47;1.35;;;21.00;67.60;;;;;;4968475;28;20405;-75
2022/10/02 11:05:21;;;;;;;4.60;0.93;;;20.90;67.50;;;;;;4991974;28;20050;-75
2022/10/02 11:08:17;;;;;;;4.10;0.90;;;20.90;67.50;;;;;;4977695;28;20509;-75
2022/10/02 11:11:06;;;;;;;6.47;1.20;;;20.90;67.30;;;;;;4975855;28;20046;-74
2022/10/02 11:13:45;;;;;;;5.07;1.10;;;20.90;67.30;;;;;;4976317;28;20530;-74
2022/10/02 11:16:17;;;;;;;5.40;1.50;;;20.90;67.30;;;;;;4959600;28;20046;-74
2022/10/02 11:19:34;;;;;;;6.68;1.48;;;20.90;67.30;;;;;;4958720;28;20051;-74
2022/10/02 11:22:08;;;;;;;3.75;0.90;;;21.00;67.40;;;;;;4966913;28;20058;-73
2022/10/02 11:25:03;;;;;;;7.35;1.23;;;21.00;67.40;;;;;;5004280;28;20046;-72
2022/10/02 11:28:02;;;;;;;5.68;1.10;;;21.00;67.50;;;;;;4984642;28;20046;-72
2022/10/02 11:30:28;;;;;;;6.95;1.10;;;21.00;67.70;;;;;;4985494;28;20038;-72
2022/10/02 11:33:14;;;;;;;5.18;1.13;;;21.00;67.60;;;;;;4989428;28;20440;-71
2022/10/02 11:36:27;;;;;;;5.13;1.05;;;21.00;67.70;;;;;;4999820;28;20042;-68
2022/10/02 11:39:05;;;;;;;4.25;1.15;;;21.10;67.90;;;;;;4963952;28;20053;-70
2022/10/02 11:41:42;;;;;;;4.00;1.40;;;21.10;67.90;;;;;;4999333;28;20085;-70
2022/10/02 11:44:21;;;;;;;5.85;1.13;;;21.10;67.80;;;;;;4987386;28;20510;-71
2022/10/02 11:47:08;;;;;;;6.30;1.20;;;21.20;67.90;;;;;;4956989;28;20122;-72
2022/10/02 11:50:01;;;;;;;3.67;1.00;;;21.10;67.80;;;;;;5001431;28;20483;-73
2022/10/02 11:52:48;;;;;;;6.05;1.05;;;21.20;67.90;;;;;;5006331;28;20050;-70
2022/10/02 11:55:28;;;;;;;5.97;1.33;;;21.20;67.80;;;;;;5006772;28;20046;-71
2022/10/02 11:58:07;;;;;;;4.68;1.10;;;21.20;67.70;;;;;;5009488;28;20048;-70
2022/10/02 12:01:07;;;;;;;5.35;1.10;;;21.20;67.70;;;;;;4984788;28;20038;-71
2022/10/02 12:03:35;;;;;;;3.70;1.10;;;21.20;67.70;;;;;;5005709;28;20042;-71
2022/10/02 12:06:24;;;;;;;5.03;1.13;;;21.20;67.70;;;;;;5009750;28;20120;-70
2022/10/02 12:08:56;;;;;;;4.13;1.08;;;21.20;67.80;;;;;;4985952;28;20096;-70
2022/10/02 12:11:45;;;;;;;3.00;0.93;;;21.20;67.80;;;;;;5011940;28;20038;-71
2022/10/02 12:14:30;;;;;;;5.80;1.20;;;21.20;67.80;;;;;;5012951;28;20100;-72
2022/10/02 12:17:17;;;;;;;4.90;1.20;;;21.10;67.80;;;;;;5012556;28;20057;-73
2022/10/02 12:26:57;;;;;;;6.57;1.45;;;21.20;67.90;;;;;;5011604;28;20493;-72
2022/10/02 12:28:24;;;;;;;4.13;1.08;;;21.10;67.90;;;;;;5012606;28;20493;-74
2022/10/02 12:31:05;;;;;;;3.72;1.00;;;21.10;67.90;;;;;;5011242;28;20054;-74
2022/10/02 12:33:37;;;;;;;4.78;1.00;;;21.20;67.90;;;;;;4994007;28;20046;-76
2022/10/02 12:36:37;;;;;;;3.88;1.00;;;21.10;67.90;;;;;;4993439;28;20513;-76
2022/10/02 12:39:19;;;;;;;3.60;0.90;;;21.20;67.90;;;;;;4980251;28;20046;-75
2022/10/02 12:41:54;;;;;;;7.15;1.10;;;21.20;68.30;;;;;;4994976;28;20413;-74
2022/10/02 12:44:30;;;;;;;7.10;1.20;;;21.20;67.60;;;;;;4976759;28;20479;-74
2022/10/02 12:47:19;;;;;;;5.68;1.40;;;21.30;68.00;;;;;;5012322;28;20160;-73
2022/10/02 12:50:10;;;;;;;5.28;1.20;;;21.30;67.70;;;;;;4983985;28;20133;-73
2022/10/02 12:52:58;;;;;;;6.97;1.00;;;21.30;67.60;;;;;;5006084;28;20046;-72
2022/10/02 12:55:42;;;;;;;5.18;1.45;;;21.30;67.50;;;;;;4977715;28;20482;-72
2022/10/02 12:58:09;;;;;;;5.15;1.08;;;21.40;67.40;;;;;;5010626;28;20394;-72
2022/10/02 13:00:53;;;;;;;4.13;1.00;;;21.30;67.30;;;;;;4994200;28;20049;-71
2022/10/02 13:03:27;;;;;;;7.13;1.20;;;21.40;67.20;;;;;;4991334;28;20030;-72
2022/10/02 13:06:23;;;;;;;5.18;1.08;;;21.40;67.20;;;;;;4976677;28;20053;-71
2022/10/02 13:09:01;;;;;;;5.40;1.10;;;21.30;67.20;;;;;;5011667;28;20042;-74
2022/10/02 13:11:50;;;;;;;6.47;1.17;;;21.40;67.20;;;;;;4960140;28;20054;-78
2022/10/02 13:14:54;;;;;;;9.52;1.17;;;21.30;67.00;;;;;;4959658;28;20375;-77
2022/10/02 13:17:45;;;;;;;5.60;1.10;;;21.30;66.90;;;;;;4994169;28;20058;-77
2022/10/02 13:20:36;;;;;;;5.45;0.90;;;21.30;66.80;;;;;;4994039;28;20061;-77
2022/10/02 13:23:36;;;;;;;5.00;1.08;;;21.30;66.80;;;;;;4958940;28;20058;-78
2022/10/02 13:26:21;;;;;;;3.80;0.77;;;21.40;66.80;;;;;;4993681;28;20081;-78
2022/10/02 13:28:52;;;;;;;6.07;1.10;;;21.40;66.70;;;;;;4994785;28;20042;-78
2022/10/02 13:31:41;;;;;;;5.88;1.15;;;21.50;66.60;;;;;;4994069;28;20046;-78
2022/10/02 13:34:25;;;;;;;3.80;1.10;;;21.50;66.50;;;;;;4976361;28;20050;-78
2022/10/02 13:36:59;;;;;;;6.20;1.33;;;21.60;66.40;;;;;;4994280;28;20034;-78
2022/10/02 13:39:39;;;;;;;3.30;0.90;;;21.70;66.30;;;;;;4993607;28;20058;-78
2022/10/02 13:42:26;;;;;;;6.72;1.15;;;21.70;66.10;;;;;;4994578;28;20134;-78
2022/10/02 13:45:10;;;;;;;6.13;1.15;;;21.70;66.00;;;;;;4980158;28;20054;-75
2022/10/02 13:47:47;;;;;;;5.38;1.20;;;21.60;65.80;;;;;;5005995;28;20065;-77
2022/10/02 13:50:34;;;;;;;6.65;1.30;;;21.60;65.80;;;;;;5012155;28;20069;-75
2022/10/02 13:53:08;;;;;;;5.15;0.93;;;21.60;65.80;;;;;;5012975;28;20050;-75
2022/10/02 13:55:42;;;;;;;3.05;1.00;;;21.60;65.90;;;;;;5012346;28;20046;-73
2022/10/02 13:58:20;;;;;;;4.47;1.38;;;21.50;65.90;;;;;;5011124;28;20048;-74
2022/10/02 14:01:03;;;;;;;5.32;1.35;;;21.50;65.90;;;;;;5011970;28;20053;-75
2022/10/02 14:03:50;;;;;;;5.25;1.23;;;21.50;65.90;;;;;;5010879;28;20037;-75